sensor_id;sensor_type;location;lat;lon;timestamp;P1;durP1;ratioP1;P2;durP2;ratioP2
63112;SDS011;49206;48.020;21.378;2024-01-10T00:00:58;35.05;;;15.63;;
63112;SDS011;49206;48.020;21.378;2024-01-10T00:02:02;37.60;;;16.17;;
63112;SDS011;49206;48.020;21.378;2024-01-10T00:03:09;35.30;;;16.98;;
63112;SDS011;49206;48.020;21.378;2024-01-10T00:04:20;39.35;;;17.63;;
63112;SDS011;49206;48.020;21.378;2024-01-10T00:06:30;30.83;;;15.93;;
63112;SDS011;49206;48.020;21.378;2024-01-10T00:07:39;34.42;;;16.88;;
63112;SDS011;49206;48.020;21.378;2024-01-10T00:08:42;26.80;;;14.48;;
63112;SDS011;49206;48.020;21.378;2024-01-10T00:09:54;34.60;;;16.90;;
63112;SDS011;49206;48.020;21.378;2024-01-10T00:11:01;30.75;;;15.35;;
63112;SDS011;49206;48.020;21.378;2024-01-10T00:12:14;42.47;;;18.45;;
63112;SDS011;49206;48.020;21.378;2024-01-10T00:13:20;38.35;;;17.77;;
63112;SDS011;49206;48.020;21.378;2024-01-10T00:14:36;31.25;;;16.17;;
63112;SDS011;49206;48.020;21.378;2024-01-10T00:15:42;31.65;;;17.17;;
63112;SDS011;49206;48.020;21.378;2024-01-10T00:16:48;39.58;;;19.55;;
63112;SDS011;49206;48.020;21.378;2024-01-10T00:17:50;44.05;;;19.20;;
63112;SDS011;49206;48.020;21.378;2024-01-10T00:19:01;41.55;;;18.02;;
63112;SDS011;49206;48.020;21.378;2024-01-10T00:20:06;46.28;;;18.88;;
63112;SDS011;49206;48.020;21.378;2024-01-10T00:21:23;37.92;;;17.98;;
63112;SDS011;49206;48.020;21.378;2024-01-10T00:22:34;40.72;;;18.08;;
63112;SDS011;49206;48.020;21.378;2024-01-10T00:23:37;41.80;;;18.88;;
63112;SDS011;49206;48.020;21.378;2024-01-10T00:24:40;36.33;;;18.77;;
63112;SDS011;49206;48.020;21.378;2024-01-10T00:25:44;38.40;;;17.30;;
63112;SDS011;49206;48.020;21.378;2024-01-10T00:26:48;38.42;;;18.65;;
63112;SDS011;49206;48.020;21.378;2024-01-10T00:27:58;31.15;;;16.50;;
63112;SDS011;49206;48.020;21.378;2024-01-10T00:29:04;36.40;;;16.17;;
63112;SDS011;49206;48.020;21.378;2024-01-10T00:30:07;35.47;;;17.23;;
63112;SDS011;49206;48.020;21.378;2024-01-10T00:31:10;35.70;;;17.40;;
63112;SDS011;49206;48.020;21.378;2024-01-10T00:32:22;36.08;;;15.93;;
63112;SDS011;49206;48.020;21.378;2024-01-10T00:33:28;35.72;;;16.65;;
63112;SDS011;49206;48.020;21.378;2024-01-10T00:34:38;38.08;;;17.23;;
63112;SDS011;49206;48.020;21.378;2024-01-10T00:35:41;35.92;;;16.17;;
63112;SDS011;49206;48.020;21.378;2024-01-10T00:36:44;37.72;;;18.70;;
63112;SDS011;49206;48.020;21.378;2024-01-10T00:37:48;36.05;;;16.80;;
63112;SDS011;49206;48.020;21.378;2024-01-10T00:38:57;36.40;;;16.17;;
63112;SDS011;49206;48.020;21.378;2024-01-10T00:39:59;36.45;;;16.90;;
63112;SDS011;49206;48.020;21.378;2024-01-10T00:41:08;34.33;;;17.13;;
63112;SDS011;49206;48.020;21.378;2024-01-10T00:42:13;35.88;;;16.70;;
63112;SDS011;49206;48.020;21.378;2024-01-10T00:43:16;38.33;;;16.08;;
63112;SDS011;49206;48.020;21.378;2024-01-10T00:44:19;32.60;;;14.95;;
63112;SDS011;49206;48.020;21.378;2024-01-10T00:45:23;37.03;;;16.15;;
63112;SDS011;49206;48.020;21.378;2024-01-10T00:46:33;36.20;;;16.90;;
63112;SDS011;49206;48.020;21.378;2024-01-10T00:47:37;36.55;;;17.85;;
63112;SDS011;49206;48.020;21.378;2024-01-10T00:48:40;33.40;;;16.67;;
63112;SDS011;49206;48.020;21.378;2024-01-10T00:51:29;30.88;;;15.48;;
63112;SDS011;49206;48.020;21.378;2024-01-10T00:52:39;30.58;;;15.38;;
63112;SDS011;49206;48.020;21.378;2024-01-10T00:53:59;36.92;;;15.82;;
63112;SDS011;49206;48.020;21.378;2024-01-10T00:55:13;38.55;;;16.42;;
63112;SDS011;49206;48.020;21.378;2024-01-10T00:56:23;39.85;;;16.05;;
63112;SDS011;49206;48.020;21.378;2024-01-10T00:57:31;35.50;;;16.58;;
63112;SDS011;49206;48.020;21.378;2024-01-10T00:58:37;36.78;;;17.02;;
63112;SDS011;49206;48.020;21.378;2024-01-10T00:59:48;34.75;;;15.85;;
63112;SDS011;49206;48.020;21.378;2024-01-10T01:01:07;38.65;;;17.33;;
63112;SDS011;49206;48.020;21.378;2024-01-10T01:02:27;33.30;;;15.35;;
63112;SDS011;49206;48.020;21.378;2024-01-10T01:03:44;41.33;;;15.45;;
63112;SDS011;49206;48.020;21.378;2024-01-10T01:04:51;35.60;;;17.25;;
63112;SDS011;49206;48.020;21.378;2024-01-10T01:06:03;41.70;;;17.27;;
63112;SDS011;49206;48.020;21.378;2024-01-10T01:07:12;32.72;;;15.88;;
63112;SDS011;49206;48.020;21.378;2024-01-10T01:08:16;35.78;;;17.50;;
63112;SDS011;49206;48.020;21.378;2024-01-10T01:09:34;33.03;;;15.88;;
63112;SDS011;49206;48.020;21.378;2024-01-10T01:10:53;36.95;;;17.10;;
63112;SDS011;49206;48.020;21.378;2024-01-10T01:12:02;34.60;;;16.33;;
63112;SDS011;49206;48.020;21.378;2024-01-10T01:13:12;36.75;;;16.63;;
63112;SDS011;49206;48.020;21.378;2024-01-10T01:14:25;30.50;;;15.30;;
63112;SDS011;49206;48.020;21.378;2024-01-10T01:15:34;35.92;;;15.57;;
63112;SDS011;49206;48.020;21.378;2024-01-10T01:16:52;31.00;;;16.17;;
63112;SDS011;49206;48.020;21.378;2024-01-10T01:18:00;33.80;;;16.65;;
63112;SDS011;49206;48.020;21.378;2024-01-10T01:19:04;35.88;;;16.08;;
63112;SDS011;49206;48.020;21.378;2024-01-10T01:20:09;32.83;;;16.45;;
63112;SDS011;49206;48.020;21.378;2024-01-10T01:21:30;30.75;;;15.90;;
63112;SDS011;49206;48.020;21.378;2024-01-10T01:23:00;32.00;;;15.27;;
63112;SDS011;49206;48.020;21.378;2024-01-10T01:24:08;36.35;;;17.02;;
63112;SDS011;49206;48.020;21.378;2024-01-10T01:25:23;34.65;;;15.30;;
63112;SDS011;49206;48.020;21.378;2024-01-10T01:26:29;39.65;;;17.40;;
63112;SDS011;49206;48.020;21.378;2024-01-10T01:27:31;35.28;;;17.42;;
63112;SDS011;49206;48.020;21.378;2024-01-10T01:28:44;31.52;;;17.45;;
63112;SDS011;49206;48.020;21.378;2024-01-10T01:29:47;33.80;;;17.27;;
63112;SDS011;49206;48.020;21.378;2024-01-10T01:31:00;41.30;;;16.85;;
63112;SDS011;49206;48.020;21.378;2024-01-10T01:32:07;40.83;;;17.83;;
63112;SDS011;49206;48.020;21.378;2024-01-10T01:33:13;42.80;;;18.67;;
63112;SDS011;49206;48.020;21.378;2024-01-10T01:34:20;39.95;;;17.80;;
63112;SDS011;49206;48.020;21.378;2024-01-10T01:35:28;37.92;;;17.60;;
63112;SDS011;49206;48.020;21.378;2024-01-10T01:36:39;32.63;;;17.70;;
63112;SDS011;49206;48.020;21.378;2024-01-10T01:37:51;40.28;;;17.92;;
63112;SDS011;49206;48.020;21.378;2024-01-10T01:38:57;33.97;;;16.33;;
63112;SDS011;49206;48.020;21.378;2024-01-10T01:40:02;32.55;;;14.55;;
63112;SDS011;49206;48.020;21.378;2024-01-10T01:41:13;35.70;;;16.00;;
63112;SDS011;49206;48.020;21.378;2024-01-10T01:42:22;32.97;;;16.42;;
63112;SDS011;49206;48.020;21.378;2024-01-10T01:43:29;42.72;;;18.13;;
63112;SDS011;49206;48.020;21.378;2024-01-10T01:44:44;36.13;;;16.85;;
63112;SDS011;49206;48.020;21.378;2024-01-10T01:46:15;31.88;;;14.95;;
63112;SDS011;49206;48.020;21.378;2024-01-10T01:47:30;36.88;;;16.77;;
63112;SDS011;49206;48.020;21.378;2024-01-10T01:48:45;36.55;;;14.30;;
63112;SDS011;49206;48.020;21.378;2024-01-10T01:49:57;39.60;;;17.08;;
63112;SDS011;49206;48.020;21.378;2024-01-10T01:51:06;34.45;;;15.30;;
63112;SDS011;49206;48.020;21.378;2024-01-10T01:52:16;31.95;;;14.93;;
63112;SDS011;49206;48.020;21.378;2024-01-10T01:53:24;35.33;;;15.43;;
63112;SDS011;49206;48.020;21.378;2024-01-10T01:54:34;34.60;;;15.10;;
63112;SDS011;49206;48.020;21.378;2024-01-10T01:55:45;32.70;;;16.83;;
63112;SDS011;49206;48.020;21.378;2024-01-10T01:59:15;30.38;;;14.20;;
63112;SDS011;49206;48.020;21.378;2024-01-10T02:02:42;26.05;;;14.30;;
63112;SDS011;49206;48.020;21.378;2024-01-10T02:03:51;31.58;;;15.07;;
63112;SDS011;49206;48.020;21.378;2024-01-10T02:04:54;29.60;;;15.65;;
63112;SDS011;49206;48.020;21.378;2024-01-10T02:05:57;33.05;;;13.82;;
63112;SDS011;49206;48.020;21.378;2024-01-10T02:07:01;28.33;;;15.00;;
63112;SDS011;49206;48.020;21.378;2024-01-10T02:08:07;31.60;;;14.23;;
63112;SDS011;49206;48.020;21.378;2024-01-10T02:09:21;29.15;;;14.40;;
63112;SDS011;49206;48.020;21.378;2024-01-10T02:10:27;30.92;;;13.90;;
63112;SDS011;49206;48.020;21.378;2024-01-10T02:11:31;27.95;;;15.57;;
63112;SDS011;49206;48.020;21.378;2024-01-10T02:12:38;34.15;;;16.08;;
63112;SDS011;49206;48.020;21.378;2024-01-10T02:13:48;31.40;;;14.20;;
63112;SDS011;49206;48.020;21.378;2024-01-10T02:14:51;29.40;;;15.15;;
63112;SDS011;49206;48.020;21.378;2024-01-10T02:16:00;31.27;;;16.27;;
63112;SDS011;49206;48.020;21.378;2024-01-10T02:17:07;31.30;;;16.15;;
63112;SDS011;49206;48.020;21.378;2024-01-10T02:18:12;32.72;;;17.02;;
63112;SDS011;49206;48.020;21.378;2024-01-10T02:19:25;33.17;;;18.63;;
63112;SDS011;49206;48.020;21.378;2024-01-10T02:20:44;31.40;;;16.33;;
63112;SDS011;49206;48.020;21.378;2024-01-10T02:21:47;35.30;;;17.65;;
63112;SDS011;49206;48.020;21.378;2024-01-10T02:22:50;38.63;;;18.42;;
63112;SDS011;49206;48.020;21.378;2024-01-10T02:23:59;35.03;;;17.40;;
63112;SDS011;49206;48.020;21.378;2024-01-10T02:25:07;34.75;;;16.33;;
63112;SDS011;49206;48.020;21.378;2024-01-10T02:26:20;32.47;;;17.98;;
63112;SDS011;49206;48.020;21.378;2024-01-10T02:27:42;31.95;;;16.60;;
63112;SDS011;49206;48.020;21.378;2024-01-10T02:28:46;40.42;;;18.35;;
63112;SDS011;49206;48.020;21.378;2024-01-10T02:29:49;39.75;;;18.10;;
63112;SDS011;49206;48.020;21.378;2024-01-10T02:30:52;42.10;;;18.63;;
63112;SDS011;49206;48.020;21.378;2024-01-10T02:31:55;36.97;;;17.40;;
63112;SDS011;49206;48.020;21.378;2024-01-10T02:33:01;46.20;;;19.08;;
63112;SDS011;49206;48.020;21.378;2024-01-10T02:34:09;39.33;;;17.98;;
63112;SDS011;49206;48.020;21.378;2024-01-10T02:35:14;40.45;;;19.58;;
63112;SDS011;49206;48.020;21.378;2024-01-10T02:36:26;35.78;;;18.17;;
63112;SDS011;49206;48.020;21.378;2024-01-10T02:37:44;43.10;;;18.17;;
63112;SDS011;49206;48.020;21.378;2024-01-10T02:38:48;37.65;;;17.52;;
63112;SDS011;49206;48.020;21.378;2024-01-10T02:40:13;38.35;;;18.40;;
63112;SDS011;49206;48.020;21.378;2024-01-10T02:41:16;40.92;;;18.30;;
63112;SDS011;49206;48.020;21.378;2024-01-10T02:42:27;42.38;;;19.30;;
63112;SDS011;49206;48.020;21.378;2024-01-10T02:43:37;34.13;;;16.77;;
63112;SDS011;49206;48.020;21.378;2024-01-10T02:44:41;39.35;;;18.58;;
63112;SDS011;49206;48.020;21.378;2024-01-10T02:45:51;35.15;;;16.88;;
63112;SDS011;49206;48.020;21.378;2024-01-10T02:46:55;33.20;;;17.90;;
63112;SDS011;49206;48.020;21.378;2024-01-10T02:47:58;32.38;;;17.52;;
63112;SDS011;49206;48.020;21.378;2024-01-10T02:49:03;35.53;;;17.08;;
63112;SDS011;49206;48.020;21.378;2024-01-10T02:50:16;31.63;;;16.95;;
63112;SDS011;49206;48.020;21.378;2024-01-10T02:51:26;35.28;;;17.65;;
63112;SDS011;49206;48.020;21.378;2024-01-10T02:52:43;32.75;;;17.40;;
63112;SDS011;49206;48.020;21.378;2024-01-10T02:53:47;32.33;;;17.88;;
63112;SDS011;49206;48.020;21.378;2024-01-10T02:54:53;38.72;;;18.35;;
63112;SDS011;49206;48.020;21.378;2024-01-10T02:55:58;38.97;;;18.58;;
63112;SDS011;49206;48.020;21.378;2024-01-10T02:57:03;43.22;;;18.83;;
63112;SDS011;49206;48.020;21.378;2024-01-10T02:58:07;34.47;;;15.63;;
63112;SDS011;49206;48.020;21.378;2024-01-10T02:59:10;34.83;;;17.00;;
63112;SDS011;49206;48.020;21.378;2024-01-10T03:00:13;37.42;;;17.90;;
63112;SDS011;49206;48.020;21.378;2024-01-10T03:01:33;36.15;;;17.13;;
63112;SDS011;49206;48.020;21.378;2024-01-10T03:02:37;37.17;;;16.27;;
63112;SDS011;49206;48.020;21.378;2024-01-10T03:03:44;30.83;;;16.40;;
63112;SDS011;49206;48.020;21.378;2024-01-10T03:04:52;31.52;;;16.95;;
63112;SDS011;49206;48.020;21.378;2024-01-10T03:05:55;37.88;;;18.73;;
63112;SDS011;49206;48.020;21.378;2024-01-10T03:06:59;35.95;;;16.80;;
63112;SDS011;49206;48.020;21.378;2024-01-10T03:08:02;37.20;;;16.17;;
63112;SDS011;49206;48.020;21.378;2024-01-10T03:09:12;33.33;;;15.43;;
63112;SDS011;49206;48.020;21.378;2024-01-10T03:10:17;37.17;;;17.92;;
63112;SDS011;49206;48.020;21.378;2024-01-10T03:11:22;29.00;;;15.25;;
63112;SDS011;49206;48.020;21.378;2024-01-10T03:12:31;31.90;;;15.40;;
63112;SDS011;49206;48.020;21.378;2024-01-10T03:13:43;30.42;;;15.77;;
63112;SDS011;49206;48.020;21.378;2024-01-10T03:14:48;30.85;;;15.02;;
63112;SDS011;49206;48.020;21.378;2024-01-10T03:15:58;37.33;;;16.77;;
63112;SDS011;49206;48.020;21.378;2024-01-10T03:17:07;31.40;;;15.77;;
63112;SDS011;49206;48.020;21.378;2024-01-10T03:18:13;37.10;;;16.63;;
63112;SDS011;49206;48.020;21.378;2024-01-10T03:19:21;38.20;;;15.70;;
63112;SDS011;49206;48.020;21.378;2024-01-10T03:20:24;32.30;;;16.30;;
63112;SDS011;49206;48.020;21.378;2024-01-10T03:21:33;33.28;;;16.77;;
63112;SDS011;49206;48.020;21.378;2024-01-10T03:22:39;35.72;;;16.67;;
63112;SDS011;49206;48.020;21.378;2024-01-10T03:23:54;30.65;;;15.23;;
63112;SDS011;49206;48.020;21.378;2024-01-10T03:25:00;38.15;;;17.27;;
63112;SDS011;49206;48.020;21.378;2024-01-10T03:26:12;36.40;;;16.55;;
63112;SDS011;49206;48.020;21.378;2024-01-10T03:27:22;34.42;;;15.18;;
63112;SDS011;49206;48.020;21.378;2024-01-10T03:28:25;30.83;;;16.42;;
63112;SDS011;49206;48.020;21.378;2024-01-10T03:29:30;27.38;;;16.13;;
63112;SDS011;49206;48.020;21.378;2024-01-10T03:30:33;32.38;;;15.93;;
63112;SDS011;49206;48.020;21.378;2024-01-10T03:31:38;37.53;;;16.65;;
63112;SDS011;49206;48.020;21.378;2024-01-10T03:32:41;33.03;;;16.63;;
63112;SDS011;49206;48.020;21.378;2024-01-10T03:33:44;31.73;;;15.50;;
63112;SDS011;49206;48.020;21.378;2024-01-10T03:34:47;29.17;;;15.18;;
63112;SDS011;49206;48.020;21.378;2024-01-10T03:35:55;36.05;;;15.30;;
63112;SDS011;49206;48.020;21.378;2024-01-10T03:36:58;29.08;;;16.00;;
63112;SDS011;49206;48.020;21.378;2024-01-10T03:38:03;33.55;;;15.00;;
63112;SDS011;49206;48.020;21.378;2024-01-10T03:39:09;33.85;;;15.70;;
63112;SDS011;49206;48.020;21.378;2024-01-10T03:40:15;31.35;;;15.80;;
63112;SDS011;49206;48.020;21.378;2024-01-10T03:41:18;35.95;;;16.77;;
63112;SDS011;49206;48.020;21.378;2024-01-10T03:42:22;31.90;;;16.02;;
63112;SDS011;49206;48.020;21.378;2024-01-10T03:43:28;34.13;;;16.08;;
63112;SDS011;49206;48.020;21.378;2024-01-10T03:44:33;30.60;;;16.27;;
63112;SDS011;49206;48.020;21.378;2024-01-10T03:45:36;29.38;;;14.93;;
63112;SDS011;49206;48.020;21.378;2024-01-10T03:46:41;29.70;;;15.13;;
63112;SDS011;49206;48.020;21.378;2024-01-10T03:47:44;38.15;;;16.98;;
63112;SDS011;49206;48.020;21.378;2024-01-10T03:48:49;32.97;;;14.77;;
63112;SDS011;49206;48.020;21.378;2024-01-10T03:49:55;27.42;;;13.05;;
63112;SDS011;49206;48.020;21.378;2024-01-10T03:51:01;32.50;;;14.60;;
63112;SDS011;49206;48.020;21.378;2024-01-10T03:52:04;31.27;;;15.10;;
63112;SDS011;49206;48.020;21.378;2024-01-10T03:53:09;29.30;;;14.63;;
63112;SDS011;49206;48.020;21.378;2024-01-10T03:54:24;32.28;;;16.08;;
63112;SDS011;49206;48.020;21.378;2024-01-10T03:55:30;34.33;;;16.85;;
63112;SDS011;49206;48.020;21.378;2024-01-10T03:56:37;28.77;;;15.40;;
63112;SDS011;49206;48.020;21.378;2024-01-10T03:57:41;33.63;;;15.25;;
63112;SDS011;49206;48.020;21.378;2024-01-10T03:58:54;34.63;;;14.93;;
63112;SDS011;49206;48.020;21.378;2024-01-10T04:00:02;33.55;;;16.73;;
63112;SDS011;49206;48.020;21.378;2024-01-10T04:01:08;30.70;;;15.38;;
63112;SDS011;49206;48.020;21.378;2024-01-10T04:02:18;32.17;;;14.52;;
63112;SDS011;49206;48.020;21.378;2024-01-10T04:04:31;30.95;;;14.85;;
63112;SDS011;49206;48.020;21.378;2024-01-10T04:05:44;29.75;;;13.90;;
63112;SDS011;49206;48.020;21.378;2024-01-10T04:06:54;34.05;;;15.98;;
63112;SDS011;49206;48.020;21.378;2024-01-10T04:08:00;31.23;;;14.70;;
63112;SDS011;49206;48.020;21.378;2024-01-10T04:09:04;29.27;;;14.32;;
63112;SDS011;49206;48.020;21.378;2024-01-10T04:10:12;32.85;;;15.80;;
63112;SDS011;49206;48.020;21.378;2024-01-10T04:11:19;27.92;;;15.18;;
63112;SDS011;49206;48.020;21.378;2024-01-10T04:12:24;31.13;;;15.50;;
63112;SDS011;49206;48.020;21.378;2024-01-10T04:13:30;34.55;;;16.83;;
63112;SDS011;49206;48.020;21.378;2024-01-10T04:14:34;30.08;;;15.48;;
63112;SDS011;49206;48.020;21.378;2024-01-10T04:15:40;36.58;;;17.58;;
63112;SDS011;49206;48.020;21.378;2024-01-10T04:17:08;28.67;;;15.75;;
63112;SDS011;49206;48.020;21.378;2024-01-10T04:18:17;33.92;;;15.63;;
63112;SDS011;49206;48.020;21.378;2024-01-10T04:19:23;37.83;;;18.17;;
63112;SDS011;49206;48.020;21.378;2024-01-10T04:20:35;29.55;;;16.05;;
63112;SDS011;49206;48.020;21.378;2024-01-10T04:21:45;28.45;;;14.45;;
63112;SDS011;49206;48.020;21.378;2024-01-10T04:22:55;36.35;;;18.27;;
63112;SDS011;49206;48.020;21.378;2024-01-10T04:25:37;32.38;;;15.70;;
63112;SDS011;49206;48.020;21.378;2024-01-10T04:26:50;33.35;;;18.33;;
63112;SDS011;49206;48.020;21.378;2024-01-10T04:27:57;40.28;;;16.30;;
63112;SDS011;49206;48.020;21.378;2024-01-10T04:29:00;34.53;;;17.38;;
63112;SDS011;49206;48.020;21.378;2024-01-10T04:30:09;31.38;;;16.02;;
63112;SDS011;49206;48.020;21.378;2024-01-10T04:31:27;31.08;;;15.15;;
63112;SDS011;49206;48.020;21.378;2024-01-10T04:32:40;41.28;;;17.13;;
63112;SDS011;49206;48.020;21.378;2024-01-10T04:33:43;42.05;;;20.15;;
63112;SDS011;49206;48.020;21.378;2024-01-10T04:35:17;40.40;;;18.83;;
63112;SDS011;49206;48.020;21.378;2024-01-10T04:36:33;37.10;;;17.00;;
63112;SDS011;49206;48.020;21.378;2024-01-10T04:37:53;42.95;;;18.30;;
63112;SDS011;49206;48.020;21.378;2024-01-10T04:39:03;34.42;;;17.63;;
63112;SDS011;49206;48.020;21.378;2024-01-10T04:40:08;36.97;;;17.83;;
63112;SDS011;49206;48.020;21.378;2024-01-10T04:41:14;41.63;;;19.50;;
63112;SDS011;49206;48.020;21.378;2024-01-10T04:42:35;35.65;;;17.25;;
63112;SDS011;49206;48.020;21.378;2024-01-10T04:43:55;30.85;;;15.95;;
63112;SDS011;49206;48.020;21.378;2024-01-10T04:44:58;37.85;;;17.77;;
63112;SDS011;49206;48.020;21.378;2024-01-10T04:46:03;36.85;;;18.67;;
63112;SDS011;49206;48.020;21.378;2024-01-10T04:47:13;38.47;;;17.67;;
63112;SDS011;49206;48.020;21.378;2024-01-10T04:48:26;44.80;;;19.65;;
63112;SDS011;49206;48.020;21.378;2024-01-10T04:49:38;44.70;;;19.15;;
63112;SDS011;49206;48.020;21.378;2024-01-10T04:50:46;61.95;;;22.55;;
63112;SDS011;49206;48.020;21.378;2024-01-10T04:51:51;94.13;;;33.85;;
63112;SDS011;49206;48.020;21.378;2024-01-10T04:54:01;77.82;;;32.08;;
63112;SDS011;49206;48.020;21.378;2024-01-10T04:55:08;78.38;;;31.70;;
63112;SDS011;49206;48.020;21.378;2024-01-10T04:56:15;86.90;;;34.85;;
63112;SDS011;49206;48.020;21.378;2024-01-10T04:57:28;83.35;;;32.83;;
63112;SDS011;49206;48.020;21.378;2024-01-10T04:58:36;56.83;;;24.67;;
63112;SDS011;49206;48.020;21.378;2024-01-10T04:59:42;43.00;;;20.60;;
63112;SDS011;49206;48.020;21.378;2024-01-10T05:00:44;45.60;;;21.10;;
63112;SDS011;49206;48.020;21.378;2024-01-10T05:01:47;55.67;;;22.35;;
63112;SDS011;49206;48.020;21.378;2024-01-10T05:02:54;57.75;;;24.58;;
63112;SDS011;49206;48.020;21.378;2024-01-10T05:03:58;68.65;;;30.75;;
63112;SDS011;49206;48.020;21.378;2024-01-10T05:05:04;77.65;;;32.90;;
63112;SDS011;49206;48.020;21.378;2024-01-10T05:06:16;73.05;;;29.67;;
63112;SDS011;49206;48.020;21.378;2024-01-10T05:07:30;67.78;;;27.40;;
63112;SDS011;49206;48.020;21.378;2024-01-10T05:08:41;64.43;;;26.95;;
63112;SDS011;49206;48.020;21.378;2024-01-10T05:09:51;62.33;;;26.55;;
63112;SDS011;49206;48.020;21.378;2024-01-10T05:10:56;62.80;;;27.10;;
63112;SDS011;49206;48.020;21.378;2024-01-10T05:12:07;59.25;;;27.70;;
63112;SDS011;49206;48.020;21.378;2024-01-10T05:13:24;54.88;;;25.40;;
63112;SDS011;49206;48.020;21.378;2024-01-10T05:14:35;58.45;;;23.85;;
63112;SDS011;49206;48.020;21.378;2024-01-10T05:15:40;55.58;;;23.98;;
63112;SDS011;49206;48.020;21.378;2024-01-10T05:16:43;56.58;;;24.50;;
63112;SDS011;49206;48.020;21.378;2024-01-10T05:17:46;57.88;;;23.50;;
63112;SDS011;49206;48.020;21.378;2024-01-10T05:19:02;59.45;;;24.55;;
63112;SDS011;49206;48.020;21.378;2024-01-10T05:20:09;61.30;;;24.25;;
63112;SDS011;49206;48.020;21.378;2024-01-10T05:21:19;49.72;;;22.55;;
63112;SDS011;49206;48.020;21.378;2024-01-10T05:22:27;61.65;;;26.15;;
63112;SDS011;49206;48.020;21.378;2024-01-10T05:23:49;47.85;;;22.83;;
63112;SDS011;49206;48.020;21.378;2024-01-10T05:24:54;58.13;;;24.15;;
63112;SDS011;49206;48.020;21.378;2024-01-10T05:26:00;55.63;;;24.70;;
63112;SDS011;49206;48.020;21.378;2024-01-10T05:27:04;60.88;;;25.05;;
63112;SDS011;49206;48.020;21.378;2024-01-10T05:28:10;57.53;;;25.50;;
63112;SDS011;49206;48.020;21.378;2024-01-10T05:29:14;53.78;;;23.77;;
63112;SDS011;49206;48.020;21.378;2024-01-10T05:30:20;45.55;;;20.92;;
63112;SDS011;49206;48.020;21.378;2024-01-10T05:31:26;45.25;;;21.23;;
63112;SDS011;49206;48.020;21.378;2024-01-10T05:32:30;39.40;;;19.42;;
63112;SDS011;49206;48.020;21.378;2024-01-10T05:33:54;43.60;;;17.80;;
63112;SDS011;49206;48.020;21.378;2024-01-10T05:34:59;36.95;;;19.65;;
63112;SDS011;49206;48.020;21.378;2024-01-10T05:37:15;40.40;;;17.67;;
63112;SDS011;49206;48.020;21.378;2024-01-10T05:38:22;44.90;;;21.95;;
63112;SDS011;49206;48.020;21.378;2024-01-10T05:39:25;40.45;;;18.17;;
63112;SDS011;49206;48.020;21.378;2024-01-10T05:40:35;40.72;;;19.75;;
63112;SDS011;49206;48.020;21.378;2024-01-10T05:41:38;43.42;;;20.55;;
63112;SDS011;49206;48.020;21.378;2024-01-10T05:42:49;48.55;;;22.27;;
63112;SDS011;49206;48.020;21.378;2024-01-10T05:43:53;44.58;;;21.08;;
63112;SDS011;49206;48.020;21.378;2024-01-10T05:45:09;51.97;;;23.05;;
63112;SDS011;49206;48.020;21.378;2024-01-10T05:46:12;50.25;;;24.17;;
63112;SDS011;49206;48.020;21.378;2024-01-10T05:47:23;49.83;;;21.30;;
63112;SDS011;49206;48.020;21.378;2024-01-10T05:48:35;40.00;;;21.17;;
63112;SDS011;49206;48.020;21.378;2024-01-10T05:49:45;48.83;;;19.58;;
63112;SDS011;49206;48.020;21.378;2024-01-10T05:50:58;42.80;;;21.50;;
63112;SDS011;49206;48.020;21.378;2024-01-10T05:52:06;48.45;;;24.55;;
63112;SDS011;49206;48.020;21.378;2024-01-10T05:53:10;50.33;;;23.85;;
63112;SDS011;49206;48.020;21.378;2024-01-10T05:54:18;49.10;;;23.13;;
63112;SDS011;49206;48.020;21.378;2024-01-10T05:55:22;52.72;;;24.52;;
63112;SDS011;49206;48.020;21.378;2024-01-10T05:56:28;50.88;;;23.17;;
63112;SDS011;49206;48.020;21.378;2024-01-10T05:57:36;50.63;;;25.25;;
63112;SDS011;49206;48.020;21.378;2024-01-10T05:58:48;51.05;;;24.83;;
63112;SDS011;49206;48.020;21.378;2024-01-10T06:00:03;49.38;;;24.00;;
63112;SDS011;49206;48.020;21.378;2024-01-10T06:01:32;57.25;;;25.00;;
63112;SDS011;49206;48.020;21.378;2024-01-10T06:02:38;61.25;;;28.73;;
63112;SDS011;49206;48.020;21.378;2024-01-10T06:03:48;78.63;;;35.28;;
63112;SDS011;49206;48.020;21.378;2024-01-10T06:05:09;71.63;;;32.00;;
63112;SDS011;49206;48.020;21.378;2024-01-10T06:06:14;76.45;;;35.70;;
63112;SDS011;49206;48.020;21.378;2024-01-10T06:07:22;58.55;;;30.13;;
63112;SDS011;49206;48.020;21.378;2024-01-10T06:09:33;50.80;;;23.98;;
63112;SDS011;49206;48.020;21.378;2024-01-10T06:10:46;54.22;;;25.77;;
63112;SDS011;49206;48.020;21.378;2024-01-10T06:11:52;56.40;;;27.33;;
63112;SDS011;49206;48.020;21.378;2024-01-10T06:12:57;50.45;;;25.10;;
63112;SDS011;49206;48.020;21.378;2024-01-10T06:14:08;60.10;;;26.52;;
63112;SDS011;49206;48.020;21.378;2024-01-10T06:15:12;60.70;;;25.67;;
63112;SDS011;49206;48.020;21.378;2024-01-10T06:16:21;62.30;;;27.17;;
63112;SDS011;49206;48.020;21.378;2024-01-10T06:17:28;59.70;;;28.20;;
63112;SDS011;49206;48.020;21.378;2024-01-10T06:18:31;61.10;;;29.00;;
63112;SDS011;49206;48.020;21.378;2024-01-10T06:19:38;73.70;;;31.05;;
63112;SDS011;49206;48.020;21.378;2024-01-10T06:20:49;61.05;;;30.58;;
63112;SDS011;49206;48.020;21.378;2024-01-10T06:22:02;62.45;;;30.25;;
63112;SDS011;49206;48.020;21.378;2024-01-10T06:23:08;67.65;;;31.48;;
63112;SDS011;49206;48.020;21.378;2024-01-10T06:24:11;63.05;;;29.00;;
63112;SDS011;49206;48.020;21.378;2024-01-10T06:25:19;64.47;;;30.67;;
63112;SDS011;49206;48.020;21.378;2024-01-10T06:26:32;70.97;;;30.00;;
63112;SDS011;49206;48.020;21.378;2024-01-10T06:27:35;64.30;;;29.58;;
63112;SDS011;49206;48.020;21.378;2024-01-10T06:28:38;67.88;;;31.92;;
63112;SDS011;49206;48.020;21.378;2024-01-10T06:29:48;62.10;;;28.80;;
63112;SDS011;49206;48.020;21.378;2024-01-10T06:30:54;75.57;;;30.58;;
63112;SDS011;49206;48.020;21.378;2024-01-10T06:32:10;70.88;;;32.00;;
63112;SDS011;49206;48.020;21.378;2024-01-10T06:33:32;63.30;;;27.80;;
63112;SDS011;49206;48.020;21.378;2024-01-10T06:34:59;72.38;;;30.95;;
63112;SDS011;49206;48.020;21.378;2024-01-10T06:36:04;65.35;;;29.80;;
63112;SDS011;49206;48.020;21.378;2024-01-10T06:37:08;72.38;;;32.40;;
63112;SDS011;49206;48.020;21.378;2024-01-10T06:38:13;66.43;;;32.97;;
63112;SDS011;49206;48.020;21.378;2024-01-10T06:39:19;71.38;;;31.63;;
63112;SDS011;49206;48.020;21.378;2024-01-10T06:40:26;70.07;;;32.75;;
63112;SDS011;49206;48.020;21.378;2024-01-10T06:41:31;65.22;;;32.05;;
63112;SDS011;49206;48.020;21.378;2024-01-10T06:42:35;76.70;;;34.20;;
63112;SDS011;49206;48.020;21.378;2024-01-10T06:43:48;71.15;;;30.48;;
63112;SDS011;49206;48.020;21.378;2024-01-10T06:45:02;56.65;;;27.50;;
63112;SDS011;49206;48.020;21.378;2024-01-10T06:46:10;76.15;;;31.05;;
63112;SDS011;49206;48.020;21.378;2024-01-10T06:47:16;69.65;;;27.95;;
63112;SDS011;49206;48.020;21.378;2024-01-10T06:48:24;72.70;;;30.17;;